Aalter, Belgium
Current Conditions -  °F | °C
As of 11:55 AM on Friday 24 Oct 2014 (Local Time) from EHFS Reporting Station
Light Rain Light Rain  
Wind Chill: 54°   Ceiling: 2500
Heat Index: 54°   Visibility: 2.4mi
Dew Point: 54°   Wind: 23mph
Humidity: 100%   Direction: 190°S
Pressure: 30.03"   Gusts: NA
Location:  51.09°N, 3.45°E
Report Text: EHFS 240955Z AUTO 19020KT 3900 -RA FEW005/// SCT007///OVC025/// 12/12 Q1017
Loading
Personal Weather Stations






























Interactive Weather Map
Tropical Storm Tracking
New forecast layout! Learn more

10-Day Weather Forecast

Advertisements
Track Severe Weather on mobile